Time;durP1;ratioP1;P1;durP2;ratioP2;P2;SDS_P1;SDS_P2;PMS_P1;PMS_P2;Temp;Humidity;BMP_temperature;BMP_pressure;BME280_temperature;BME280_humidity;BME280_pressure;Samples;Min_cycle;Max_cycle;Signal;HPM_P1;HPM_P2
2023/03/08 00:01:36;;;;;;;17.98;8.40;;;;;;;-0.12;100.00;100005.75;2613897;36;20446;-52
2023/03/08 00:04:04;;;;;;;16.33;8.18;;;;;;;-0.11;100.00;100006.63;2611304;36;20069;-55
2023/03/08 00:06:33;;;;;;;17.65;8.32;;;;;;;-0.25;100.00;100002.13;2613221;36;20033;-53
2023/03/08 00:09:03;;;;;;;28.52;9.45;;;;;;;-0.15;100.00;100003.28;2611662;36;20046;-51
2023/03/08 00:11:31;;;;;;;15.45;7.65;;;;;;;-0.14;100.00;100006.81;2611240;36;20042;-51
2023/03/08 00:14:02;;;;;;;15.77;8.33;;;;;;;-0.17;100.00;100001.69;2614984;36;20558;-54
2023/03/08 00:16:30;;;;;;;14.60;8.55;;;;;;;-0.28;100.00;100011.09;2616004;36;20031;-54
2023/03/08 00:19:01;;;;;;;11.83;7.30;;;;;;;-0.27;100.00;100017.25;2616283;36;20038;-53
2023/03/08 00:21:29;;;;;;;12.30;7.68;;;;;;;-0.24;100.00;100015.25;2615897;36;20311;-55
2023/03/08 00:23:58;;;;;;;15.10;8.30;;;;;;;-0.37;100.00;100017.78;2613886;31;20057;-51
2023/03/08 00:26:26;;;;;;;17.48;8.70;;;;;;;-0.22;100.00;100009.88;2614298;36;20039;-51
2023/03/08 00:28:54;;;;;;;12.68;8.20;;;;;;;-0.10;100.00;100008.34;2614420;36;20388;-51
2023/03/08 00:31:23;;;;;;;15.85;8.55;;;;;;;-0.16;100.00;100003.38;2615345;36;20539;-53
2023/03/08 00:33:55;;;;;;;14.00;8.10;;;;;;;-0.24;100.00;99990.63;2615723;36;20033;-51
2023/03/08 00:36:26;;;;;;;11.82;7.80;;;;;;;-0.24;100.00;100003.84;2615185;36;20402;-52
2023/03/08 00:38:54;;;;;;;11.80;7.75;;;;;;;-0.23;100.00;100002.91;2616068;36;20034;-52
2023/03/08 00:41:23;;;;;;;11.38;7.93;;;;;;;-0.19;100.00;99996.50;2615509;36;20038;-53
2023/03/08 00:43:51;;;;;;;10.77;7.32;;;;;;;-0.21;100.00;100009.81;2616051;36;20039;-53
2023/03/08 00:46:20;;;;;;;10.17;6.50;;;;;;;-0.20;100.00;100003.56;2611532;36;20440;-54
2023/03/08 00:48:48;;;;;;;15.18;7.30;;;;;;;-0.23;100.00;100006.41;2606080;36;20291;-59
2023/03/08 00:51:19;;;;;;;11.02;8.07;;;;;;;-0.24;100.00;100009.97;2606385;36;20249;-56
2023/03/08 00:53:50;;;;;;;9.65;6.97;;;;;;;-0.39;100.00;100001.13;2606713;36;20034;-54
2023/03/08 00:56:19;;;;;;;11.70;6.78;;;;;;;-0.38;100.00;100005.47;2605732;36;20038;-53
2023/03/08 00:58:48;;;;;;;12.40;6.22;;;;;;;-0.25;100.00;99999.47;2613840;36;20038;-58
2023/03/08 01:01:18;;;;;;;12.52;6.28;;;;;;;-0.24;100.00;100002.03;2614280;36;20031;-56
2023/03/08 01:03:46;;;;;;;9.05;6.35;;;;;;;-0.41;100.00;100004.81;2613285;36;20045;-59
2023/03/08 01:06:16;;;;;;;10.32;6.43;;;;;;;-0.42;100.00;99998.66;2612654;36;20042;-55
2023/03/08 01:08:45;;;;;;;9.10;6.28;;;;;;;-0.41;100.00;99999.53;2613121;36;20958;-55
2023/03/08 01:11:24;;;;;;;9.90;6.32;;;;;;;-0.34;100.00;100000.00;2612848;36;20045;-58
2023/03/08 01:13:53;;;;;;;6.55;5.25;;;;;;;-0.34;100.00;99989.44;2613466;36;20043;-55
2023/03/08 01:16:24;;;;;;;8.50;5.53;;;;;;;-0.38;100.00;99979.03;2614522;31;20428;-57
2023/03/08 01:18:53;;;;;;;8.30;6.05;;;;;;;-0.31;100.00;99983.97;2614036;36;20047;-54
2023/03/08 01:21:22;;;;;;;10.65;6.10;;;;;;;-0.45;100.00;99977.69;2614718;36;20030;-55
2023/03/08 01:23:50;;;;;;;10.10;5.95;;;;;;;-0.28;100.00;99975.84;2613372;36;20037;-54
2023/03/08 01:26:23;;;;;;;7.38;6.05;;;;;;;-0.33;100.00;99976.13;2614068;36;20023;-52
2023/03/08 01:28:52;;;;;;;9.10;5.45;;;;;;;-0.37;100.00;99980.75;2614022;36;20045;-56
2023/03/08 01:31:22;;;;;;;10.10;5.57;;;;;;;-0.44;100.00;99963.53;2614829;36;20031;-56
2023/03/08 01:33:51;;;;;;;7.07;5.13;;;;;;;-0.34;100.00;99968.28;2615515;36;20027;-59
2023/03/08 01:36:21;;;;;;;10.25;5.35;;;;;;;-0.41;100.00;99967.81;2615997;36;20041;-54
2023/03/08 01:38:50;;;;;;;9.13;5.30;;;;;;;-0.29;100.00;99963.59;2616124;36;20038;-58
2023/03/08 01:41:20;;;;;;;5.87;4.70;;;;;;;-0.31;100.00;99968.97;2615840;36;20034;-52
2023/03/08 01:43:52;;;;;;;11.13;4.90;;;;;;;-0.25;100.00;99978.31;2615674;36;20300;-59
2023/03/08 01:46:25;;;;;;;8.48;4.93;;;;;;;-0.30;100.00;99968.00;2616017;31;20042;-52
2023/03/08 01:48:59;;;;;;;9.88;5.22;;;;;;;-0.36;100.00;99961.28;2615682;36;20045;-55
2023/03/08 01:51:35;;;;;;;6.45;4.45;;;;;;;-0.43;100.00;99967.88;2615663;36;20107;-56
2023/03/08 01:54:08;;;;;;;9.20;4.63;;;;;;;-0.37;100.00;99962.25;2614440;36;20042;-59
2023/03/08 01:56:39;;;;;;;6.97;4.75;;;;;;;-0.32;100.00;99953.16;2612296;31;20634;-60
2023/03/08 01:59:10;;;;;;;7.68;4.75;;;;;;;-0.37;100.00;99948.16;2614719;36;20405;-54
2023/03/08 02:01:40;;;;;;;8.93;4.40;;;;;;;-0.37;100.00;99942.88;2614074;36;20042;-51
2023/03/08 02:04:09;;;;;;;;;;;;;;;-0.35;100.00;99941.00;2614945;31;20034;-57
2023/03/08 02:06:37;;;;;;;7.68;5.22;;;;;;;-0.43;100.00;99940.59;2613949;36;20034;-55
2023/03/08 02:09:06;;;;;;;6.53;4.67;;;;;;;-0.50;100.00;99940.09;2614324;36;20045;-53
2023/03/08 02:11:35;;;;;;;7.40;4.53;;;;;;;-0.40;100.00;99933.34;2613607;36;20562;-53
2023/03/08 02:14:04;;;;;;;7.35;5.40;;;;;;;-0.49;100.00;99923.28;2614183;36;20045;-51
2023/03/08 02:16:35;;;;;;;7.88;4.70;;;;;;;-0.50;100.00;99911.03;2610088;31;20462;-53
2023/03/08 02:19:07;;;;;;;9.90;5.50;;;;;;;-0.37;100.00;99906.72;2612722;36;20042;-51
2023/03/08 02:21:36;;;;;;;10.02;5.57;;;;;;;-0.28;100.00;99904.47;2614844;36;20527;-53
2023/03/08 02:24:09;;;;;;;7.22;4.63;;;;;;;-0.29;100.00;99900.97;2614928;36;20039;-55
2023/03/08 02:26:39;;;;;;;7.10;4.25;;;;;;;-0.38;100.00;99894.44;2614253;36;20045;-54
2023/03/08 02:29:07;;;;;;;8.60;4.80;;;;;;;-0.41;100.00;99896.44;2615510;36;20641;-54
2023/03/08 02:31:36;;;;;;;8.77;5.25;;;;;;;-0.61;100.00;99890.47;2614115;36;20026;-52
2023/03/08 02:34:04;;;;;;;10.75;5.05;;;;;;;-0.58;100.00;99886.81;2615979;36;20043;-51
2023/03/08 02:36:32;;;;;;;7.07;4.90;;;;;;;-0.45;100.00;99895.72;2614938;36;20026;-50
2023/03/08 02:39:01;;;;;;;9.38;5.65;;;;;;;-0.41;100.00;99889.34;2615360;36;20033;-51
2023/03/08 02:41:32;;;;;;;8.60;4.60;;;;;;;-0.37;100.00;99893.50;2615645;36;20539;-52
2023/03/08 02:44:00;;;;;;;8.32;4.97;;;;;;;-0.45;100.00;99886.97;2616282;36;20539;-54
2023/03/08 02:46:28;;;;;;;7.50;4.68;;;;;;;-0.61;100.00;99884.34;2614669;36;20539;-54
2023/03/08 02:48:57;;;;;;;10.63;4.90;;;;;;;-0.71;100.00;99898.09;2614966;36;20038;-54
2023/03/08 02:51:25;;;;;;;6.57;4.50;;;;;;;-0.79;100.00;99883.63;2615692;36;20042;-50
2023/03/08 02:53:53;;;;;;;4.97;4.10;;;;;;;-0.87;100.00;99886.69;2614639;36;20043;-54
2023/03/08 02:56:22;;;;;;;8.00;4.30;;;;;;;-0.78;100.00;99888.81;2613047;36;20031;-55
2023/03/08 02:58:53;;;;;;;5.72;3.90;;;;;;;-0.76;100.00;99889.56;2612226;36;20570;-52
2023/03/08 03:01:21;;;;;;;7.53;4.43;;;;;;;-0.85;100.00;99889.25;2613625;36;20107;-53
2023/03/08 03:03:50;;;;;;;6.97;4.23;;;;;;;-0.95;100.00;99883.66;2613087;36;20038;-53
2023/03/08 03:06:20;;;;;;;7.90;4.10;;;;;;;-1.07;100.00;99880.75;2613030;36;20034;-53
2023/03/08 03:08:48;;;;;;;5.65;3.85;;;;;;;-1.14;100.00;99879.38;2612861;36;20050;-53
2023/03/08 03:11:18;;;;;;;6.80;4.53;;;;;;;-1.02;100.00;99874.38;2613380;36;20026;-53
2023/03/08 03:13:47;;;;;;;7.20;4.93;;;;;;;-0.85;100.00;99874.25;2614011;36;20119;-54
2023/03/08 03:16:18;;;;;;;6.22;4.50;;;;;;;-0.94;100.00;99880.91;2613249;36;20045;-54
2023/03/08 03:18:46;;;;;;;5.85;4.32;;;;;;;-0.97;100.00;99874.94;2613740;36;20034;-54
2023/03/08 03:21:15;;;;;;;7.13;4.85;;;;;;;-0.97;100.00;99880.22;2614287;36;20042;-53
2023/03/08 03:23:44;;;;;;;9.02;5.05;;;;;;;-1.01;100.00;99878.72;2614804;31;20035;-51
2023/03/08 03:26:14;;;;;;;7.40;4.78;;;;;;;-1.09;100.00;99887.91;2614412;36;20035;-50
2023/03/08 03:28:43;;;;;;;7.57;5.57;;;;;;;-0.98;100.00;99879.38;2614809;36;20042;-52
2023/03/08 03:31:13;;;;;;;9.40;6.20;;;;;;;-0.97;100.00;99874.94;2614437;36;20034;-52
2023/03/08 03:33:44;;;;;;;12.65;6.30;;;;;;;-0.89;100.00;99870.09;2614237;36;20026;-51
2023/03/08 03:36:16;;;;;;;10.43;6.60;;;;;;;-0.90;100.00;99871.88;2613770;36;20570;-51
2023/03/08 03:38:45;;;;;;;9.85;6.72;;;;;;;-0.91;100.00;99874.63;2614709;36;20111;-51
2023/03/08 03:41:16;;;;;;;11.45;7.35;;;;;;;-1.01;100.00;99868.16;2613831;36;20424;-54
2023/03/08 03:43:45;;;;;;;12.25;8.00;;;;;;;-0.91;100.00;99864.06;2614316;36;20033;-54
2023/03/08 03:46:15;;;;;;;17.00;9.50;;;;;;;-0.98;100.00;99862.69;2613261;36;20045;-49
2023/03/08 03:48:47;;;;;;;14.35;8.90;;;;;;;-1.11;100.00;99858.09;2613267;36;20034;-51
2023/03/08 03:51:17;;;;;;;14.35;9.95;;;;;;;-1.11;100.00;99847.53;2613316;36;20023;-53
2023/03/08 03:53:46;;;;;;;15.57;10.95;;;;;;;-0.94;100.00;99848.38;2613995;36;20118;-52
2023/03/08 03:56:16;;;;;;;20.67;11.48;;;;;;;-0.90;100.00;99841.97;2613237;36;20038;-50
2023/03/08 03:58:45;;;;;;;20.63;11.57;;;;;;;-0.93;100.00;99845.66;2613191;36;20049;-51
2023/03/08 04:01:16;;;;;;;18.58;11.55;;;;;;;-0.95;100.00;99838.75;2612831;36;20031;-54
2023/03/08 04:03:47;;;;;;;19.83;12.35;;;;;;;-0.91;100.00;99837.63;2614058;36;20049;-54
2023/03/08 04:06:17;;;;;;;26.75;13.57;;;;;;;-0.90;100.00;99828.75;2613796;36;20026;-52
2023/03/08 04:08:46;;;;;;;27.15;15.13;;;;;;;-0.91;100.00;99827.91;2615528;36;20061;-52
2023/03/08 04:11:17;;;;;;;25.55;13.65;;;;;;;-0.98;100.00;99821.28;2615772;36;20555;-55
2023/03/08 04:13:46;;;;;;;23.40;13.70;;;;;;;-0.89;100.00;99819.91;2616971;36;20026;-52
2023/03/08 04:16:16;;;;;;;22.73;14.52;;;;;;;-0.85;100.00;99826.72;2615328;36;20035;-52
2023/03/08 04:18:47;;;;;;;17.92;12.90;;;;;;;-0.93;100.00;99816.59;2615649;36;20023;-54
2023/03/08 04:21:16;;;;;;;23.35;13.55;;;;;;;-0.96;100.00;99819.38;2616244;36;20023;-50
2023/03/08 04:23:44;;;;;;;22.87;14.70;;;;;;;-0.91;100.00;99824.44;2616237;36;20038;-54
2023/03/08 04:26:13;;;;;;;20.98;14.75;;;;;;;-0.86;100.00;99817.06;2615987;36;20298;-52
2023/03/08 04:28:41;;;;;;;25.63;15.90;;;;;;;-0.97;100.00;99811.56;2616117;31;20559;-53
2023/03/08 04:31:15;;;;;;;23.73;16.17;;;;;;;-0.86;100.00;99797.75;2615965;36;20041;-54
2023/03/08 04:33:43;;;;;;;25.80;17.65;;;;;;;-0.83;100.00;99810.78;2616240;36;20038;-54
2023/03/08 04:36:15;;;;;;;26.38;17.00;;;;;;;-0.84;100.00;99799.38;2616007;36;20026;-56
2023/03/08 04:38:44;;;;;;;27.35;16.63;;;;;;;-0.76;100.00;99798.91;2614673;36;20065;-54
2023/03/08 04:41:13;;;;;;;27.25;17.05;;;;;;;-0.72;100.00;99797.78;2614877;36;20061;-53
2023/03/08 04:43:42;;;;;;;26.60;18.17;;;;;;;-0.65;100.00;99787.69;2614337;36;20026;-53
2023/03/08 04:46:11;;;;;;;;;;;;;;;-0.66;100.00;99789.50;2613326;31;20049;-54
2023/03/08 04:48:39;;;;;;;25.73;18.20;;;;;;;-0.65;100.00;99783.25;2614651;36;19947;-52
2023/03/08 04:51:09;;;;;;;31.48;21.10;;;;;;;-0.68;100.00;99785.25;2614823;36;20038;-53
2023/03/08 04:53:40;;;;;;;31.67;18.73;;;;;;;-0.63;100.00;99778.75;2614369;36;20046;-56
2023/03/08 04:56:10;;;;;;;32.45;21.17;;;;;;;-0.56;100.00;99771.28;2613806;36;20030;-53
2023/03/08 04:58:40;;;;;;;39.95;22.63;;;;;;;-0.47;100.00;99769.88;2614555;36;20061;-55
2023/03/08 05:01:13;;;;;;;39.60;22.35;;;;;;;-0.60;100.00;99762.69;2614829;36;20027;-53
2023/03/08 05:03:42;;;;;;;32.88;21.67;;;;;;;-0.52;100.00;99759.59;2614162;36;20026;-54
2023/03/08 05:06:11;;;;;;;36.42;20.95;;;;;;;-0.50;100.00;99757.72;2615409;36;20031;-54
2023/03/08 05:08:42;;;;;;;39.28;21.48;;;;;;;-0.52;100.00;99754.31;2613506;31;20539;-54
2023/03/08 05:11:12;;;;;;;36.15;22.10;;;;;;;-0.53;100.00;99736.72;2613875;36;20038;-53
2023/03/08 05:13:40;;;;;;;38.83;22.08;;;;;;;-0.44;100.00;99741.47;2614163;36;20092;-53
2023/03/08 05:16:10;;;;;;;38.10;22.95;;;;;;;-0.51;100.00;99734.88;2613044;36;20038;-56
2023/03/08 05:18:38;;;;;;;36.40;21.42;;;;;;;-0.45;100.00;99726.56;2614834;36;20509;-54
2023/03/08 05:21:10;;;;;;;33.35;20.90;;;;;;;-0.48;100.00;99728.56;2613788;36;20042;-54
2023/03/08 05:23:38;;;;;;;37.65;21.33;;;;;;;-0.53;100.00;99728.81;2614848;36;20034;-54
2023/03/08 05:26:12;;;;;;;40.50;21.43;;;;;;;-0.48;100.00;99724.09;2614510;31;20034;-54
2023/03/08 05:28:40;;;;;;;38.05;18.85;;;;;;;-0.55;100.00;99720.97;2613523;36;20283;-55
2023/03/08 05:31:10;;;;;;;34.85;21.10;;;;;;;-0.48;100.00;99713.53;2614389;36;20038;-54
2023/03/08 05:33:39;;;;;;;31.05;18.92;;;;;;;-0.57;100.00;99714.94;2614428;36;20034;-54
2023/03/08 05:36:09;;;;;;;37.58;19.10;;;;;;;-0.56;100.00;99699.91;2614347;36;20027;-53
2023/03/08 05:38:37;;;;;;;;;;;;;;;-0.65;100.00;99693.41;2614640;36;20046;-53
2023/03/08 05:41:10;;;;;;;35.75;21.48;;;;;;;-0.65;100.00;99698.69;2615152;36;19938;-54
2023/03/08 05:43:38;;;;;;;29.77;19.15;;;;;;;-0.64;100.00;99691.63;2615825;36;20038;-54
2023/03/08 05:46:08;;;;;;;32.67;19.95;;;;;;;-0.54;100.00;99690.13;2614821;31;20365;-56
2023/03/08 05:48:37;;;;;;;32.53;18.65;;;;;;;-0.64;100.00;99679.25;2613279;36;20045;-54
2023/03/08 05:51:07;;;;;;;35.15;20.30;;;;;;;-0.67;100.00;99678.59;2613600;36;20041;-53
2023/03/08 05:53:35;;;;;;;;;;;;;;;-0.73;100.00;99678.03;2614487;36;20030;-52
2023/03/08 05:56:12;;;;;;;34.50;20.30;;;;;;;-0.74;100.00;99671.06;2615637;31;19950;-54
2023/03/08 05:58:41;;;;;;;36.38;20.48;;;;;;;-0.78;100.00;99674.81;2613564;36;20440;-56
2023/03/08 06:01:12;;;;;;;38.05;19.83;;;;;;;-0.85;100.00;99677.91;2611582;36;20739;-54
2023/03/08 06:03:40;;;;;;;30.00;18.70;;;;;;;-0.75;100.00;99668.47;2613857;36;20129;-55
2023/03/08 06:06:12;;;;;;;31.42;18.17;;;;;;;-0.74;100.00;99665.78;2613030;36;20030;-54
2023/03/08 06:08:40;;;;;;;38.42;18.88;;;;;;;-0.79;100.00;99662.56;2613686;36;20042;-56
2023/03/08 06:11:12;;;;;;;32.65;17.20;;;;;;;-0.83;100.00;99647.81;2613454;36;20041;-54
2023/03/08 06:13:40;;;;;;;32.17;18.25;;;;;;;-0.94;100.00;99652.94;2613883;36;20038;-53
2023/03/08 06:16:09;;;;;;;35.93;20.07;;;;;;;-0.89;100.00;99650.84;2612780;36;20030;-52
2023/03/08 06:18:40;;;;;;;32.53;17.30;;;;;;;-0.88;100.00;99641.97;2615426;36;20034;-54
2023/03/08 06:21:12;;;;;;;37.97;20.67;;;;;;;-0.92;100.00;99643.09;2615784;36;20033;-55
2023/03/08 06:23:40;;;;;;;37.17;19.05;;;;;;;-0.91;100.00;99647.47;2616214;36;20459;-56
2023/03/08 06:26:12;;;;;;;36.53;19.48;;;;;;;-0.87;100.00;99643.66;2614917;36;20038;-55
2023/03/08 06:28:41;;;;;;;39.72;19.95;;;;;;;-0.83;100.00;99644.34;2614614;36;20042;-54
2023/03/08 06:31:13;;;;;;;35.60;19.60;;;;;;;-0.95;100.00;99641.50;2612286;36;20166;-52
2023/03/08 06:33:41;;;;;;;38.58;19.83;;;;;;;-0.88;100.00;99642.81;2613835;36;20034;-55
2023/03/08 06:36:12;;;;;;;40.17;21.33;;;;;;;-0.72;100.00;99641.91;2614564;36;20034;-54
2023/03/08 06:38:42;;;;;;;43.50;21.63;;;;;;;-0.62;100.00;99647.44;2616066;31;20038;-55
2023/03/08 06:41:14;;;;;;;40.40;20.73;;;;;;;-0.57;100.00;99635.66;2614609;36;20027;-52
2023/03/08 06:43:43;;;;;;;39.10;20.25;;;;;;;-0.47;100.00;99641.22;2613387;31;20058;-56
2023/03/08 06:46:15;;;;;;;36.38;19.48;;;;;;;-0.41;100.00;99637.34;2611493;36;20031;-54
2023/03/08 06:48:44;;;;;;;42.60;21.52;;;;;;;-0.36;100.00;99641.38;2614710;36;20038;-54
2023/03/08 06:51:12;;;;;;;39.38;20.98;;;;;;;-0.28;100.00;99640.91;2613231;36;20038;-55
2023/03/08 06:53:41;;;;;;;40.60;22.33;;;;;;;-0.13;100.00;99644.38;2613737;31;20057;-55
2023/03/08 06:56:14;;;;;;;39.85;20.60;;;;;;;-0.25;100.00;99626.63;2612847;31;20034;-51
2023/03/08 06:58:43;;;;;;;33.17;19.90;;;;;;;-0.35;100.00;99631.69;2615986;36;20574;-51
2023/03/08 07:01:15;;;;;;;39.42;20.77;;;;;;;-0.27;100.00;99641.75;2615451;36;20559;-55
2023/03/08 07:03:44;;;;;;;35.65;20.23;;;;;;;-0.25;100.00;99635.44;2613696;36;20077;-51
2023/03/08 07:06:12;;;;;;;38.83;21.00;;;;;;;-0.11;100.00;99637.19;2614637;36;20038;-54
2023/03/08 07:08:41;;;;;;;37.67;19.23;;;;;;;-0.14;100.00;99636.56;2616250;36;20552;-53
2023/03/08 07:11:10;;;;;;;37.00;19.83;;;;;;;-0.36;100.00;99628.16;2615852;36;20030;-52
2023/03/08 07:13:42;;;;;;;39.75;21.23;;;;;;;-0.28;100.00;99633.00;2617451;36;20766;-53
2023/03/08 07:16:11;;;;;;;33.65;19.60;;;;;;;-0.20;100.00;99627.22;2662096;36;20054;-53
2023/03/08 07:18:39;;;;;;;;;;;;;;;0.04;100.00;99627.41;2616131;31;20031;-54
2023/03/08 07:21:09;;;;;;;34.95;19.27;;;;;;;0.12;100.00;99637.53;2616228;36;19951;-56
2023/03/08 07:23:37;;;;;;;34.28;19.70;;;;;;;0.08;100.00;99633.38;2615973;36;20082;-55
2023/03/08 07:26:06;;;;;;;36.35;19.30;;;;;;;0.31;100.00;99626.56;2615834;36;20034;-54
2023/03/08 07:28:35;;;;;;;38.63;20.48;;;;;;;0.42;100.00;99625.88;2616083;36;20038;-56
2023/03/08 07:31:06;;;;;;;34.70;20.35;;;;;;;0.45;100.00;99626.50;2616273;31;20034;-54
2023/03/08 07:33:35;;;;;;;36.67;19.00;;;;;;;0.47;100.00;99621.09;2616024;36;20039;-53
2023/03/08 07:36:03;;;;;;;40.72;19.92;;;;;;;0.59;100.00;99625.59;2617693;31;20556;-53
2023/03/08 07:38:32;;;;;;;30.77;18.20;;;;;;;0.63;100.00;99621.78;2615059;31;20069;-55
2023/03/08 07:41:00;;;;;;;34.63;18.00;;;;;;;0.58;100.00;99612.47;2615106;36;20035;-51
2023/03/08 07:43:28;;;;;;;32.42;17.60;;;;;;;0.59;100.00;99615.00;2616221;31;20459;-53
2023/03/08 07:45:57;;;;;;;30.65;17.50;;;;;;;0.67;100.00;99614.47;2614006;36;20045;-53
2023/03/08 07:48:28;;;;;;;34.95;18.35;;;;;;;0.70;100.00;99622.22;2616343;36;20034;-56
2023/03/08 07:50:56;;;;;;;29.75;16.73;;;;;;;0.87;100.00;99602.53;2616191;36;20050;-54
2023/03/08 07:53:25;;;;;;;30.92;19.35;;;;;;;0.83;100.00;99607.19;2616244;36;20068;-54
2023/03/08 07:55:53;;;;;;;33.17;17.88;;;;;;;0.95;100.00;99600.19;2615154;31;20039;-54
2023/03/08 07:58:21;;;;;;;32.10;17.63;;;;;;;1.14;100.00;99594.47;2615662;36;20431;-55
2023/03/08 08:00:49;;;;;;;26.77;16.08;;;;;;;0.99;100.00;99596.38;2616160;36;20039;-56
2023/03/08 08:03:18;;;;;;;32.63;17.05;;;;;;;1.04;100.00;99594.25;2617447;36;20034;-55
2023/03/08 08:05:49;;;;;;;35.15;19.17;;;;;;;0.92;100.00;99586.31;2617489;31;20274;-54
2023/03/08 08:08:18;;;;;;;31.67;16.77;;;;;;;1.01;100.00;99590.97;2617542;36;20435;-55
2023/03/08 08:10:46;;;;;;;35.15;17.58;;;;;;;1.12;100.00;99584.91;2616543;36;20038;-51
2023/03/08 08:13:14;;;;;;;31.08;16.90;;;;;;;1.12;100.00;99584.91;2617129;36;20037;-53
2023/03/08 08:15:43;;;;;;;27.95;17.50;;;;;;;1.13;100.00;99578.66;2616439;36;20038;-55
2023/03/08 08:18:11;;;;;;;31.23;16.42;;;;;;;1.13;100.00;99578.66;2616742;36;20026;-55
2023/03/08 08:20:40;;;;;;;30.92;18.27;;;;;;;1.03;100.00;99573.16;2616772;36;20056;-52
2023/03/08 08:23:11;;;;;;;26.30;15.65;;;;;;;1.08;100.00;99578.16;2615749;36;20045;-55
2023/03/08 08:25:42;;;;;;;28.67;15.75;;;;;;;0.94;100.00;99569.34;2615501;36;20034;-55
2023/03/08 08:28:10;;;;;;;27.67;15.88;;;;;;;0.94;100.00;99573.81;2614872;36;20034;-52
2023/03/08 08:30:39;;;;;;;27.52;15.90;;;;;;;0.95;100.00;99571.06;2614204;36;20035;-53
2023/03/08 08:33:07;;;;;;;26.88;15.13;;;;;;;0.85;100.00;99580.59;2616941;36;20416;-54
2023/03/08 08:35:35;;;;;;;23.13;14.70;;;;;;;0.96;100.00;99572.75;2616721;36;20035;-52
2023/03/08 08:38:04;;;;;;;28.73;14.90;;;;;;;0.91;100.00;99569.56;2616971;36;20042;-53
2023/03/08 08:40:34;;;;;;;29.27;15.98;;;;;;;0.98;100.00;99568.19;2616826;36;20033;-51
2023/03/08 08:43:03;;;;;;;27.48;16.48;;;;;;;1.19;100.00;99562.34;2616555;36;20038;-51
2023/03/08 08:45:31;;;;;;;27.55;16.02;;;;;;;1.09;100.00;99571.88;2615594;36;20030;-53
2023/03/08 08:48:00;;;;;;;34.13;17.20;;;;;;;0.99;100.00;99572.53;2616741;36;20049;-52
2023/03/08 08:50:28;;;;;;;30.48;16.48;;;;;;;1.11;100.00;99567.34;2616047;36;20045;-52
2023/03/08 08:52:57;;;;;;;30.90;16.53;;;;;;;1.17;100.00;99572.22;2616308;36;20047;-54
2023/03/08 08:55:26;;;;;;;28.58;16.42;;;;;;;1.26;100.00;99557.47;2615222;36;20524;-50
2023/03/08 08:57:57;;;;;;;31.85;16.38;;;;;;;1.21;100.00;99563.09;2614720;36;20034;-52
2023/03/08 09:00:25;;;;;;;29.67;16.20;;;;;;;1.25;100.00;99558.41;2614136;36;20041;-50
2023/03/08 09:02:54;;;;;;;29.93;16.93;;;;;;;1.49;100.00;99556.66;2614257;36;20041;-54
2023/03/08 09:05:22;;;;;;;32.55;16.98;;;;;;;1.65;100.00;99559.06;2613953;36;20295;-52
2023/03/08 09:07:51;;;;;;;29.63;15.33;;;;;;;1.84;100.00;99555.91;2615046;36;20030;-53
2023/03/08 09:10:19;;;;;;;30.23;15.83;;;;;;;1.78;100.00;99544.91;2615071;36;20646;-53
2023/03/08 09:12:47;;;;;;;29.73;15.90;;;;;;;1.77;100.00;99543.19;2614637;36;20681;-54
2023/03/08 09:15:20;;;;;;;34.13;16.90;;;;;;;1.87;100.00;99546.88;2615612;36;20039;-52
2023/03/08 09:17:48;;;;;;;31.05;14.90;;;;;;;1.82;100.00;99543.72;2614971;36;20062;-56
2023/03/08 09:20:17;;;;;;;31.08;17.55;;;;;;;1.72;100.00;99547.06;2613603;36;20026;-54
2023/03/08 09:22:46;;;;;;;31.85;16.45;;;;;;;1.87;100.00;99538.91;2614504;36;20061;-51
2023/03/08 09:25:18;;;;;;;27.65;15.35;;;;;;;1.75;100.00;99549.47;2615319;31;20165;-54
2023/03/08 09:27:46;;;;;;;29.70;15.82;;;;;;;1.88;100.00;99552.06;2613927;36;20039;-55
2023/03/08 09:30:19;;;;;;;30.55;16.55;;;;;;;1.95;100.00;99547.16;2614467;36;20030;-55
2023/03/08 09:32:47;;;;;;;31.35;15.70;;;;;;;1.85;100.00;99535.53;2614934;31;20026;-56
2023/03/08 09:35:16;;;;;;;33.05;16.33;;;;;;;1.75;100.00;99524.75;2615586;36;20033;-54
2023/03/08 09:37:44;;;;;;;33.30;17.13;;;;;;;1.87;100.00;99530.94;2614222;36;20026;-54
2023/03/08 09:40:21;;;;;;;34.03;17.27;;;;;;;1.88;100.00;99530.00;2615936;36;20539;-52
2023/03/08 09:42:49;;;;;;;38.97;17.10;;;;;;;1.91;100.00;99514.72;2616195;36;20053;-51
2023/03/08 09:45:25;;;;;;;36.92;16.55;;;;;;;2.24;100.00;99521.09;2615516;36;20039;-55
2023/03/08 09:48:03;;;;;;;39.95;17.83;;;;;;;2.41;100.00;99522.47;2614583;36;20120;-54
2023/03/08 09:50:40;;;;;;;40.58;18.90;;;;;;;2.31;100.00;99505.53;2613122;36;20042;-50
2023/03/08 09:53:18;;;;;;;43.15;19.75;;;;;;;2.47;100.00;99499.06;2614311;36;20106;-53
2023/03/08 09:55:51;;;;;;;41.42;17.98;;;;;;;2.52;100.00;99497.75;2615352;31;20031;-54
2023/03/08 09:58:29;;;;;;;44.15;18.85;;;;;;;2.85;100.00;99496.09;2614783;36;20027;-54
2023/03/08 10:01:07;;;;;;;35.15;16.60;;;;;;;3.10;100.00;99507.44;2615296;36;20598;-53
2023/03/08 10:03:57;;;;;;;41.60;18.85;;;;;;;2.95;100.00;99504.19;2614871;36;20444;-55
2023/03/08 10:06:33;;;;;;;37.78;17.70;;;;;;;2.83;100.00;99510.44;2614235;36;20039;-53
2023/03/08 10:09:09;;;;;;;36.38;17.70;;;;;;;2.96;100.00;99504.06;2615884;36;20041;-52
2023/03/08 10:11:42;;;;;;;35.47;16.67;;;;;;;3.40;100.00;99493.53;2615162;36;20532;-52
2023/03/08 10:14:20;;;;;;;34.83;15.90;;;;;;;3.40;100.00;99485.53;2615373;31;20023;-55
2023/03/08 10:16:58;;;;;;;31.77;14.70;;;;;;;3.21;100.00;99487.97;2615461;36;20045;-52
2023/03/08 10:19:33;;;;;;;34.03;15.13;;;;;;;3.23;100.00;99492.22;2614181;36;20057;-52
2023/03/08 10:22:09;;;;;;;33.28;15.38;;;;;;;3.41;100.00;99479.22;2614448;36;20023;-51
2023/03/08 10:24:44;;;;;;;32.80;15.43;;;;;;;3.66;100.00;99478.06;2615239;31;20030;-54
2023/03/08 10:27:20;;;;;;;29.52;14.50;;;;;;;3.74;100.00;99473.94;2614254;31;20029;-54
2023/03/08 10:29:53;;;;;;;31.40;15.23;;;;;;;3.89;100.00;99477.16;2614510;31;20563;-52
2023/03/08 10:32:25;;;;;;;36.15;16.42;;;;;;;3.71;100.00;99475.06;2612835;36;20038;-54
2023/03/08 10:34:54;;;;;;;33.92;15.98;;;;;;;3.99;100.00;99478.06;2613805;36;20031;-54
2023/03/08 10:37:23;;;;;;;39.85;17.40;;;;;;;3.83;100.00;99475.88;2614311;36;20042;-53
2023/03/08 10:39:54;;;;;;;41.03;19.15;;;;;;;4.01;100.00;99470.81;2614348;36;20586;-52
2023/03/08 10:42:25;;;;;;;43.00;18.98;;;;;;;3.99;100.00;99472.75;2615158;36;20042;-53
2023/03/08 10:44:56;;;;;;;35.15;16.73;;;;;;;4.19;100.00;99463.94;2614412;36;20052;-55
2023/03/08 10:47:30;;;;;;;38.55;18.52;;;;;;;4.31;100.00;99455.88;2614344;36;20596;-53
2023/03/08 10:50:15;;;;;;;37.55;17.10;;;;;;;4.09;100.00;99452.38;2613795;36;20034;-54
2023/03/08 10:52:44;;;;;;;40.95;16.73;;;;;;;3.98;100.00;99449.78;2614345;36;20126;-52
2023/03/08 10:55:15;;;;;;;38.65;18.60;;;;;;;3.80;100.00;99447.69;2615214;36;20053;-55
2023/03/08 10:57:50;;;;;;;35.97;16.50;;;;;;;4.08;100.00;99440.03;2614818;36;20026;-55
2023/03/08 11:00:35;;;;;;;35.95;14.88;;;;;;;4.06;100.00;99427.84;2614535;31;20030;-54
2023/03/08 11:03:14;;;;;;;37.58;17.58;;;;;;;4.02;100.00;99424.59;2614610;31;20056;-51
2023/03/08 11:05:53;;;;;;;36.95;16.27;;;;;;;4.01;100.00;99433.56;2614905;36;20071;-55
2023/03/08 11:08:23;;;;;;;37.47;18.42;;;;;;;4.19;100.00;99425.81;2613871;36;20431;-51
2023/03/08 11:11:11;;;;;;;37.90;16.92;;;;;;;4.50;100.00;99434.69;2614547;36;20551;-54
2023/03/08 11:13:43;;;;;;;39.07;16.37;;;;;;;3.89;100.00;99422.13;2614588;36;20053;-55
2023/03/08 11:16:31;;;;;;;37.97;15.95;;;;;;;3.70;100.00;99414.81;2615356;36;20057;-56
2023/03/08 11:19:08;;;;;;;37.92;15.98;;;;;;;4.23;100.00;99416.59;2615330;36;20591;-55
2023/03/08 11:21:48;;;;;;;35.20;16.52;;;;;;;4.12;100.00;99425.50;2614965;36;20038;-56
2023/03/08 11:24:30;;;;;;;37.08;16.95;;;;;;;4.38;100.00;99436.56;2616018;36;20031;-53
2023/03/08 11:27:13;;;;;;;34.60;15.10;;;;;;;4.18;100.00;99454.28;2614056;31;20038;-55
2023/03/08 11:30:00;;;;;;;34.20;15.63;;;;;;;4.37;100.00;99456.22;2615673;54;20050;-54
2023/03/08 11:32:44;;;;;;;37.05;15.30;;;;;;;4.37;100.00;99460.69;2613090;31;20045;-55